sensor_id;sensor_type;location;lat;lon;timestamp;pressure;altitude;pressure_sealevel;temperature;humidity
46942;BME280;32676;52.630;4.896;2022-07-22T00:02:23;99433.34;;;17.16;75.25
46942;BME280;32676;52.630;4.896;2022-07-22T00:04:49;99427.31;;;17.14;75.13
46942;BME280;32676;52.630;4.896;2022-07-22T00:07:16;99413.56;;;17.09;75.22
46942;BME280;32676;52.630;4.896;2022-07-22T00:09:44;99420.44;;;17.12;74.97
46942;BME280;32676;52.630;4.896;2022-07-22T00:12:11;99424.91;;;17.11;75.20
46942;BME280;32676;52.630;4.896;2022-07-22T00:14:37;99433.59;;;17.13;75.18
46942;BME280;32676;52.630;4.896;2022-07-22T00:17:04;99424.06;;;17.11;75.31
46942;BME280;32676;52.630;4.896;2022-07-22T00:19:30;99419.84;;;17.08;75.21
46942;BME280;32676;52.630;4.896;2022-07-22T00:21:57;99412.88;;;17.07;75.52
46942;BME280;32676;52.630;4.896;2022-07-22T00:24:24;99412.16;;;17.05;75.52
46942;BME280;32676;52.630;4.896;2022-07-22T00:26:52;99413.81;;;17.06;75.71
46942;BME280;32676;52.630;4.896;2022-07-22T00:29:18;99410.56;;;17.02;75.99
46942;BME280;32676;52.630;4.896;2022-07-22T00:31:45;99395.75;;;17.00;75.72
46942;BME280;32676;52.630;4.896;2022-07-22T00:34:11;99386.03;;;16.89;76.10
46942;BME280;32676;52.630;4.896;2022-07-22T00:36:38;99394.34;;;16.96;76.12
46942;BME280;32676;52.630;4.896;2022-07-22T00:39:05;99385.19;;;16.88;76.16
46942;BME280;32676;52.630;4.896;2022-07-22T00:41:31;99380.59;;;16.91;76.13
46942;BME280;32676;52.630;4.896;2022-07-22T00:44:00;99387.44;;;16.93;76.36
46942;BME280;32676;52.630;4.896;2022-07-22T00:46:29;99389.28;;;16.93;76.57
46942;BME280;32676;52.630;4.896;2022-07-22T00:48:57;99387.56;;;16.92;76.79
46942;BME280;32676;52.630;4.896;2022-07-22T00:51:25;99387.56;;;16.92;76.76
46942;BME280;32676;52.630;4.896;2022-07-22T00:53:54;99394.56;;;16.93;76.84
46942;BME280;32676;52.630;4.896;2022-07-22T00:56:22;99391.44;;;16.87;76.90
46942;BME280;32676;52.630;4.896;2022-07-22T00:58:50;99386.16;;;16.87;76.36
46942;BME280;32676;52.630;4.896;2022-07-22T01:01:19;99400.41;;;16.86;76.31
46942;BME280;32676;52.630;4.896;2022-07-22T01:03:45;99398.47;;;16.88;76.40
46942;BME280;32676;52.630;4.896;2022-07-22T01:06:12;99402.91;;;16.88;75.74
46942;BME280;32676;52.630;4.896;2022-07-22T01:08:39;99424.47;;;16.95;75.73
46942;BME280;32676;52.630;4.896;2022-07-22T01:11:07;99403.66;;;16.90;75.65
46942;BME280;32676;52.630;4.896;2022-07-22T01:13:33;99397.25;;;16.81;75.42
46942;BME280;32676;52.630;4.896;2022-07-22T01:16:00;99413.50;;;16.88;75.10
46942;BME280;32676;52.630;4.896;2022-07-22T01:18:28;99422.06;;;16.92;75.27
46942;BME280;32676;52.630;4.896;2022-07-22T01:20:56;99417.88;;;16.89;74.72
46942;BME280;32676;52.630;4.896;2022-07-22T01:23:23;99423.06;;;16.91;74.37
46942;BME280;32676;52.630;4.896;2022-07-22T01:25:51;99431.72;;;16.93;74.57
46942;BME280;32676;52.630;4.896;2022-07-22T01:28:18;99446.53;;;16.95;74.38
46942;BME280;32676;52.630;4.896;2022-07-22T01:30:45;99453.66;;;16.95;74.36
46942;BME280;32676;52.630;4.896;2022-07-22T01:33:12;99439.22;;;16.87;74.56
46942;BME280;32676;52.630;4.896;2022-07-22T01:35:38;99458.03;;;16.96;74.64
46942;BME280;32676;52.630;4.896;2022-07-22T01:38:07;99452.94;;;16.93;74.73
46942;BME280;32676;52.630;4.896;2022-07-22T01:40:34;99445.94;;;16.92;74.73
46942;BME280;32676;52.630;4.896;2022-07-22T01:43:00;99447.78;;;16.91;75.09
46942;BME280;32676;52.630;4.896;2022-07-22T01:45:27;99448.59;;;16.92;75.43
46942;BME280;32676;52.630;4.896;2022-07-22T01:47:57;99448.41;;;16.83;75.45
46942;BME280;32676;52.630;4.896;2022-07-22T01:50:23;99451.53;;;16.88;75.17
46942;BME280;32676;52.630;4.896;2022-07-22T01:52:50;99460.19;;;16.91;74.74
46942;BME280;32676;52.630;4.896;2022-07-22T01:55:18;99453.69;;;16.83;74.54
46942;BME280;32676;52.630;4.896;2022-07-22T01:57:45;99470.56;;;16.94;74.57
46942;BME280;32676;52.630;4.896;2022-07-22T02:00:12;99469.38;;;16.86;74.93
46942;BME280;32676;52.630;4.896;2022-07-22T02:02:39;99477.78;;;16.92;74.83
46942;BME280;32676;52.630;4.896;2022-07-22T02:05:06;99489.88;;;16.96;74.52
46942;BME280;32676;52.630;4.896;2022-07-22T02:07:32;99492.41;;;16.97;74.56
46942;BME280;32676;52.630;4.896;2022-07-22T02:10:00;99493.47;;;16.95;74.40
46942;BME280;32676;52.630;4.896;2022-07-22T02:12:28;99479.50;;;16.93;74.06
46942;BME280;32676;52.630;4.896;2022-07-22T02:14:54;99482.38;;;16.89;74.28
46942;BME280;32676;52.630;4.896;2022-07-22T02:17:21;99482.66;;;16.86;74.29
46942;BME280;32676;52.630;4.896;2022-07-22T02:19:47;99487.56;;;16.91;74.67
46942;BME280;32676;52.630;4.896;2022-07-22T02:22:14;99495.66;;;16.89;74.44
46942;BME280;32676;52.630;4.896;2022-07-22T02:24:40;99493.97;;;16.88;74.33
46942;BME280;32676;52.630;4.896;2022-07-22T02:27:07;99494.34;;;16.84;73.93
46942;BME280;32676;52.630;4.896;2022-07-22T02:29:35;99512.75;;;16.97;73.65
46942;BME280;32676;52.630;4.896;2022-07-22T02:32:02;99513.28;;;16.91;73.72
46942;BME280;32676;52.630;4.896;2022-07-22T02:34:29;99530.38;;;16.98;73.84
46942;BME280;32676;52.630;4.896;2022-07-22T02:36:55;99516.16;;;16.87;74.26
46942;BME280;32676;52.630;4.896;2022-07-22T02:39:22;99530.50;;;16.96;74.39
46942;BME280;32676;52.630;4.896;2022-07-22T02:41:48;99517.59;;;16.92;74.19
46942;BME280;32676;52.630;4.896;2022-07-22T02:44:15;99540.16;;;16.97;73.79
46942;BME280;32676;52.630;4.896;2022-07-22T02:46:43;99530.84;;;16.92;74.00
46942;BME280;32676;52.630;4.896;2022-07-22T02:49:09;99517.47;;;16.82;73.64
46942;BME280;32676;52.630;4.896;2022-07-22T02:51:36;99541.00;;;16.98;74.22
46942;BME280;32676;52.630;4.896;2022-07-22T02:54:03;99551.84;;;16.95;74.14
46942;BME280;32676;52.630;4.896;2022-07-22T02:56:30;99555.00;;;17.00;74.06
46942;BME280;32676;52.630;4.896;2022-07-22T02:58:57;99563.78;;;17.00;73.85
46942;BME280;32676;52.630;4.896;2022-07-22T03:01:23;99560.31;;;17.00;74.15
46942;BME280;32676;52.630;4.896;2022-07-22T03:03:51;99557.66;;;17.00;74.64
46942;BME280;32676;52.630;4.896;2022-07-22T03:06:17;99553.78;;;16.93;74.88
46942;BME280;32676;52.630;4.896;2022-07-22T03:08:46;99548.25;;;16.96;74.59
46942;BME280;32676;52.630;4.896;2022-07-22T03:11:12;99556.22;;;16.96;74.42
46942;BME280;32676;52.630;4.896;2022-07-22T03:13:39;99552.69;;;16.95;73.99
46942;BME280;32676;52.630;4.896;2022-07-22T03:16:07;99538.38;;;16.86;74.08
46942;BME280;32676;52.630;4.896;2022-07-22T03:18:34;99537.50;;;16.86;74.25
46942;BME280;32676;52.630;4.896;2022-07-22T03:21:02;99549.59;;;16.90;74.06
46942;BME280;32676;52.630;4.896;2022-07-22T03:23:28;99553.19;;;16.89;73.95
46942;BME280;32676;52.630;4.896;2022-07-22T03:25:55;99561.75;;;16.93;73.40
46942;BME280;32676;52.630;4.896;2022-07-22T03:28:21;99547.03;;;16.88;72.35
46942;BME280;32676;52.630;4.896;2022-07-22T03:30:48;99538.59;;;16.83;72.36
46942;BME280;32676;52.630;4.896;2022-07-22T03:33:14;99547.88;;;16.89;72.80
46942;BME280;32676;52.630;4.896;2022-07-22T03:35:41;99558.38;;;16.91;72.43
46942;BME280;32676;52.630;4.896;2022-07-22T03:38:09;99554.53;;;16.83;72.44
46942;BME280;32676;52.630;4.896;2022-07-22T03:40:36;99559.31;;;16.89;72.42
46942;BME280;32676;52.630;4.896;2022-07-22T03:43:02;99552.59;;;16.85;72.43
46942;BME280;32676;52.630;4.896;2022-07-22T03:45:28;99537.38;;;16.76;72.66
46942;BME280;32676;52.630;4.896;2022-07-22T03:47:55;99547.28;;;16.85;72.65
46942;BME280;32676;52.630;4.896;2022-07-22T03:50:23;99543.16;;;16.81;72.22
46942;BME280;32676;52.630;4.896;2022-07-22T03:52:50;99528.69;;;16.74;72.04
46942;BME280;32676;52.630;4.896;2022-07-22T03:55:18;99540.75;;;16.78;71.18
46942;BME280;32676;52.630;4.896;2022-07-22T03:57:44;99533.16;;;16.74;70.92
46942;BME280;32676;52.630;4.896;2022-07-22T04:00:11;99521.94;;;16.70;70.82
46942;BME280;32676;52.630;4.896;2022-07-22T04:02:38;99537.13;;;16.79;70.58
46942;BME280;32676;52.630;4.896;2022-07-22T04:05:05;99521.94;;;16.70;70.66
46942;BME280;32676;52.630;4.896;2022-07-22T04:07:32;99524.81;;;16.78;70.00
46942;BME280;32676;52.630;4.896;2022-07-22T04:09:58;99513.72;;;16.73;69.96
46942;BME280;32676;52.630;4.896;2022-07-22T04:12:33;99504.44;;;16.67;69.75
46942;BME280;32676;52.630;4.896;2022-07-22T04:15:00;99514.72;;;16.72;69.63
46942;BME280;32676;52.630;4.896;2022-07-22T04:17:27;99528.69;;;16.74;69.63
46942;BME280;32676;52.630;4.896;2022-07-22T04:19:54;99530.34;;;16.75;69.97
46942;BME280;32676;52.630;4.896;2022-07-22T04:22:21;99529.63;;;16.73;69.90
46942;BME280;32676;52.630;4.896;2022-07-22T04:24:47;99535.94;;;16.72;70.21
46942;BME280;32676;52.630;4.896;2022-07-22T04:27:14;99529.16;;;16.68;70.13
46942;BME280;32676;52.630;4.896;2022-07-22T04:29:42;99529.16;;;16.68;70.39
46942;BME280;32676;52.630;4.896;2022-07-22T04:32:08;99560.16;;;16.79;69.67
46942;BME280;32676;52.630;4.896;2022-07-22T04:34:35;99535.94;;;16.72;69.08
46942;BME280;32676;52.630;4.896;2022-07-22T04:37:01;99544.59;;;16.74;69.56
46942;BME280;32676;52.630;4.896;2022-07-22T04:39:28;99538.59;;;16.72;69.76
46942;BME280;32676;52.630;4.896;2022-07-22T04:41:55;99544.59;;;16.74;70.20
46942;BME280;32676;52.630;4.896;2022-07-22T04:44:21;99560.75;;;16.71;70.20
46942;BME280;32676;52.630;4.896;2022-07-22T04:46:49;99571.75;;;16.78;70.27
46942;BME280;32676;52.630;4.896;2022-07-22T04:49:15;99562.19;;;16.75;70.14
46942;BME280;32676;52.630;4.896;2022-07-22T04:51:42;99548.22;;;16.73;69.49
46942;BME280;32676;52.630;4.896;2022-07-22T04:54:08;99553.50;;;16.73;70.36
46942;BME280;32676;52.630;4.896;2022-07-22T04:56:35;99560.53;;;16.74;70.52
46942;BME280;32676;52.630;4.896;2022-07-22T04:59:01;99572.69;;;16.77;70.00
46942;BME280;32676;52.630;4.896;2022-07-22T05:01:28;99578.97;;;16.76;69.51
46942;BME280;32676;52.630;4.896;2022-07-22T05:03:56;99588.50;;;16.78;69.48
46942;BME280;32676;52.630;4.896;2022-07-22T05:06:22;99604.19;;;16.81;69.69
46942;BME280;32676;52.630;4.896;2022-07-22T05:08:49;99614.56;;;16.84;69.34
46942;BME280;32676;52.630;4.896;2022-07-22T05:11:15;99623.28;;;16.86;69.24
46942;BME280;32676;52.630;4.896;2022-07-22T05:13:42;99615.75;;;16.80;68.60
46942;BME280;32676;52.630;4.896;2022-07-22T05:16:09;99630.25;;;16.87;68.82
46942;BME280;32676;52.630;4.896;2022-07-22T05:18:35;99634.13;;;16.83;69.08
46942;BME280;32676;52.630;4.896;2022-07-22T05:21:04;99639.19;;;16.86;68.91
46942;BME280;32676;52.630;4.896;2022-07-22T05:23:30;99651.47;;;16.87;69.46
46942;BME280;32676;52.630;4.896;2022-07-22T05:25:57;99644.94;;;16.80;69.34
46942;BME280;32676;52.630;4.896;2022-07-22T05:28:23;99661.56;;;16.82;69.75
46942;BME280;32676;52.630;4.896;2022-07-22T05:30:50;99689.63;;;16.98;69.21
46942;BME280;32676;52.630;4.896;2022-07-22T05:33:16;99692.38;;;16.96;69.16
46942;BME280;32676;52.630;4.896;2022-07-22T05:35:43;99682.59;;;16.85;69.15
46942;BME280;32676;52.630;4.896;2022-07-22T05:38:11;99719.31;;;17.03;68.54
46942;BME280;32676;52.630;4.896;2022-07-22T05:40:37;99720.38;;;17.00;68.53
46942;BME280;32676;52.630;4.896;2022-07-22T05:43:04;99726.88;;;16.96;68.92
46942;BME280;32676;52.630;4.896;2022-07-22T05:45:30;99738.84;;;17.02;69.27
46942;BME280;32676;52.630;4.896;2022-07-22T05:47:57;99742.09;;;17.05;68.76
46942;BME280;32676;52.630;4.896;2022-07-22T05:50:24;99749.84;;;17.08;68.83
46942;BME280;32676;52.630;4.896;2022-07-22T05:52:50;99769.97;;;17.11;68.57
46942;BME280;32676;52.630;4.896;2022-07-22T05:55:18;99766.50;;;17.11;68.23
46942;BME280;32676;52.630;4.896;2022-07-22T05:57:44;99783.97;;;17.13;68.64
46942;BME280;32676;52.630;4.896;2022-07-22T06:00:12;99765.16;;;17.05;68.67
46942;BME280;32676;52.630;4.896;2022-07-22T06:02:38;99787.34;;;17.15;68.64
46942;BME280;32676;52.630;4.896;2022-07-22T06:05:05;99813.69;;;17.18;68.48
46942;BME280;32676;52.630;4.896;2022-07-22T06:07:32;99815.38;;;17.19;68.22
46942;BME280;32676;52.630;4.896;2022-07-22T06:09:58;99832.03;;;17.21;67.75
46942;BME280;32676;52.630;4.896;2022-07-22T06:12:26;99826.44;;;17.13;67.90
46942;BME280;32676;52.630;4.896;2022-07-22T06:14:53;99879.84;;;17.33;66.74
46942;BME280;32676;52.630;4.896;2022-07-22T06:17:19;99875.75;;;17.29;65.35
46942;BME280;32676;52.630;4.896;2022-07-22T06:19:46;99896.53;;;17.35;63.66
46942;BME280;32676;52.630;4.896;2022-07-22T06:22:12;99930.34;;;17.44;63.38
46942;BME280;32676;52.630;4.896;2022-07-22T06:24:38;99951.59;;;17.44;63.82
46942;BME280;32676;52.630;4.896;2022-07-22T06:27:05;99984.25;;;17.57;64.40
46942;BME280;32676;52.630;4.896;2022-07-22T06:29:33;100013.97;;;17.62;63.66
46942;BME280;32676;52.630;4.896;2022-07-22T06:32:01;100047.09;;;17.70;63.75
46942;BME280;32676;52.630;4.896;2022-07-22T06:34:27;100081.91;;;17.78;63.68
46942;BME280;32676;52.630;4.896;2022-07-22T06:36:54;100108.03;;;17.84;64.84
46942;BME280;32676;52.630;4.896;2022-07-22T06:39:21;100131.53;;;17.90;64.33
46942;BME280;32676;52.630;4.896;2022-07-22T06:41:47;100136.84;;;17.90;62.71
46942;BME280;32676;52.630;4.896;2022-07-22T06:44:14;100142.19;;;17.90;62.20
46942;BME280;32676;52.630;4.896;2022-07-22T06:46:41;100150.78;;;17.94;61.47
46942;BME280;32676;52.630;4.896;2022-07-22T06:49:08;100170.94;;;17.96;61.25
46942;BME280;32676;52.630;4.896;2022-07-22T06:51:34;100183.91;;;18.01;60.59
46942;BME280;32676;52.630;4.896;2022-07-22T06:54:01;100204.09;;;18.03;60.64
46942;BME280;32676;52.630;4.896;2022-07-22T06:56:28;100200.72;;;18.01;60.59
46942;BME280;32676;52.630;4.896;2022-07-22T06:58:54;100204.09;;;18.03;61.41
46942;BME280;32676;52.630;4.896;2022-07-22T07:01:21;100219.84;;;18.07;61.26
46942;BME280;32676;52.630;4.896;2022-07-22T07:03:49;100220.78;;;18.06;61.41
46942;BME280;32676;52.630;4.896;2022-07-22T07:06:15;100199.06;;;17.88;61.50
46942;BME280;32676;52.630;4.896;2022-07-22T07:08:42;100259.03;;;18.16;61.55
46942;BME280;32676;52.630;4.896;2022-07-22T07:11:09;100263.84;;;18.11;61.14
46942;BME280;32676;52.630;4.896;2022-07-22T07:13:35;100277.03;;;18.12;61.11
46942;BME280;32676;52.630;4.896;2022-07-22T07:16:02;100314.00;;;18.28;60.87
46942;BME280;32676;52.630;4.896;2022-07-22T07:18:28;100347.16;;;18.35;60.50
46942;BME280;32676;52.630;4.896;2022-07-22T07:20:56;100379.47;;;18.42;58.92
46942;BME280;32676;52.630;4.896;2022-07-22T07:23:23;100378.44;;;18.45;58.17
46942;BME280;32676;52.630;4.896;2022-07-22T07:25:50;100402.22;;;18.46;58.31
46942;BME280;32676;52.630;4.896;2022-07-22T07:28:16;100426.06;;;18.48;59.20
46942;BME280;32676;52.630;4.896;2022-07-22T07:30:43;100478.94;;;18.65;58.98
46942;BME280;32676;52.630;4.896;2022-07-22T07:33:09;100505.47;;;18.67;58.20
46942;BME280;32676;52.630;4.896;2022-07-22T07:35:36;100523.53;;;18.74;58.39
46942;BME280;32676;52.630;4.896;2022-07-22T07:38:04;100533.97;;;18.77;58.12
46942;BME280;32676;52.630;4.896;2022-07-22T07:40:31;100564.56;;;18.85;58.36
46942;BME280;32676;52.630;4.896;2022-07-22T07:42:57;100607.00;;;18.86;58.78
46942;BME280;32676;52.630;4.896;2022-07-22T07:45:24;100632.78;;;18.98;58.74
46942;BME280;32676;52.630;4.896;2022-07-22T07:47:50;100645.78;;;19.03;58.74
46942;BME280;32676;52.630;4.896;2022-07-22T07:50:17;100667.94;;;19.04;59.14
46942;BME280;32676;52.630;4.896;2022-07-22T07:52:45;100696.69;;;19.11;58.69
46942;BME280;32676;52.630;4.896;2022-07-22T07:55:14;100722.91;;;19.17;59.09
46942;BME280;32676;52.630;4.896;2022-07-22T07:57:41;100740.16;;;19.25;59.22
46942;BME280;32676;52.630;4.896;2022-07-22T08:00:10;100759.56;;;19.27;58.78
46942;BME280;32676;52.630;4.896;2022-07-22T08:02:38;100759.97;;;19.21;57.97
46942;BME280;32676;52.630;4.896;2022-07-22T08:05:06;100756.16;;;19.25;57.54
46942;BME280;32676;52.630;4.896;2022-07-22T08:07:32;100757.84;;;19.26;57.74
46942;BME280;32676;52.630;4.896;2022-07-22T08:10:00;100736.72;;;19.23;57.42
46942;BME280;32676;52.630;4.896;2022-07-22T08:12:28;100750.81;;;19.25;57.86
46942;BME280;32676;52.630;4.896;2022-07-22T08:14:57;100734.22;;;19.08;58.01
46942;BME280;32676;52.630;4.896;2022-07-22T08:17:24;100761.25;;;19.28;58.06
46942;BME280;32676;52.630;4.896;2022-07-22T08:19:51;100757.84;;;19.26;58.20
46942;BME280;32676;52.630;4.896;2022-07-22T08:22:17;100740.03;;;19.13;58.45
46942;BME280;32676;52.630;4.896;2022-07-22T08:24:44;100756.16;;;19.25;58.33
46942;BME280;32676;52.630;4.896;2022-07-22T08:27:10;100730.13;;;19.15;58.02
46942;BME280;32676;52.630;4.896;2022-07-22T08:29:38;100714.16;;;19.15;58.08
46942;BME280;32676;52.630;4.896;2022-07-22T08:32:05;100690.09;;;19.04;58.62
46942;BME280;32676;52.630;4.896;2022-07-22T08:34:32;100707.13;;;19.14;58.71
46942;BME280;32676;52.630;4.896;2022-07-22T08:36:58;100691.81;;;19.05;59.38
46942;BME280;32676;52.630;4.896;2022-07-22T08:39:25;100676.56;;;19.07;59.44
46942;BME280;32676;52.630;4.896;2022-07-22T08:41:51;100656.44;;;19.03;59.48
46942;BME280;32676;52.630;4.896;2022-07-22T08:44:18;100664.44;;;19.03;59.96
46942;BME280;32676;52.630;4.896;2022-07-22T08:46:46;100659.94;;;19.04;59.34
46942;BME280;32676;52.630;4.896;2022-07-22T08:49:13;100659.31;;;19.00;59.63
46942;BME280;32676;52.630;4.896;2022-07-22T08:51:40;100654.72;;;19.02;59.46
46942;BME280;32676;52.630;4.896;2022-07-22T08:54:07;100648.75;;;18.98;58.95
46942;BME280;32676;52.630;4.896;2022-07-22T08:56:33;100646.19;;;18.97;58.41
46942;BME280;32676;52.630;4.896;2022-07-22T08:59:00;100648.13;;;18.95;58.75
46942;BME280;32676;52.630;4.896;2022-07-22T09:01:26;100659.09;;;19.03;58.78
46942;BME280;32676;52.630;4.896;2022-07-22T09:03:57;100667.09;;;19.03;58.80
46942;BME280;32676;52.630;4.896;2022-07-22T09:06:25;100699.44;;;19.10;62.18
46942;BME280;32676;52.630;4.896;2022-07-22T09:08:54;100726.53;;;19.16;63.34
46942;BME280;32676;52.630;4.896;2022-07-22T09:11:22;100775.75;;;19.24;64.08
46942;BME280;32676;52.630;4.896;2022-07-22T09:13:49;100775.94;;;19.21;61.66
46942;BME280;32676;52.630;4.896;2022-07-22T09:16:43;100805.38;;;19.32;61.93
46942;BME280;32676;52.630;4.896;2022-07-22T09:19:12;100857.81;;;19.44;61.75
46942;BME280;32676;52.630;4.896;2022-07-22T09:21:41;100866.16;;;19.40;61.56
46942;BME280;32676;52.630;4.896;2022-07-22T09:24:08;100878.38;;;19.42;60.58
46942;BME280;32676;52.630;4.896;2022-07-22T09:26:36;100848.44;;;19.38;59.31
46942;BME280;32676;52.630;4.896;2022-07-22T09:29:04;100836.19;;;19.36;58.95
46942;BME280;32676;52.630;4.896;2022-07-22T09:31:33;100864.88;;;19.45;59.33
46942;BME280;32676;52.630;4.896;2022-07-22T09:34:01;100840.34;;;19.40;58.46
46942;BME280;32676;52.630;4.896;2022-07-22T09:36:29;100859.00;;;19.40;59.15
46942;BME280;32676;52.630;4.896;2022-07-22T09:38:56;100899.81;;;19.53;59.79
46942;BME280;32676;52.630;4.896;2022-07-22T09:41:23;100936.94;;;19.56;59.82
46942;BME280;32676;52.630;4.896;2022-07-22T09:43:50;100944.50;;;19.63;58.82
46942;BME280;32676;52.630;4.896;2022-07-22T09:46:16;100941.44;;;19.56;58.95
46942;BME280;32676;52.630;4.896;2022-07-22T09:48:43;100962.41;;;19.61;58.99
46942;BME280;32676;52.630;4.896;2022-07-22T09:51:09;100957.84;;;19.63;58.83
46942;BME280;32676;52.630;4.896;2022-07-22T09:53:37;100965.44;;;19.69;59.63
46942;BME280;32676;52.630;4.896;2022-07-22T09:56:05;100949.31;;;19.58;59.38
46942;BME280;32676;52.630;4.896;2022-07-22T09:58:32;100947.94;;;19.65;59.50
46942;BME280;32676;52.630;4.896;2022-07-22T10:01:02;100952.19;;;19.54;60.04
46942;BME280;32676;52.630;4.896;2022-07-22T10:03:30;100998.00;;;19.74;60.03
46942;BME280;32676;52.630;4.896;2022-07-22T10:05:58;101039.28;;;19.81;59.96
46942;BME280;32676;52.630;4.896;2022-07-22T10:08:26;101039.06;;;19.84;59.27
46942;BME280;32676;52.630;4.896;2022-07-22T10:10:58;101100.34;;;19.99;59.00
46942;BME280;32676;52.630;4.896;2022-07-22T10:13:26;101104.72;;;20.00;58.36
46942;BME280;32676;52.630;4.896;2022-07-22T10:15:53;101097.00;;;19.95;58.03
46942;BME280;32676;52.630;4.896;2022-07-22T10:18:21;101105.66;;;19.99;58.00
46942;BME280;32676;52.630;4.896;2022-07-22T10:20:52;101088.28;;;19.93;57.81
46942;BME280;32676;52.630;4.896;2022-07-22T10:23:26;101132.91;;;20.04;58.20
46942;BME280;32676;52.630;4.896;2022-07-22T10:25:56;101152.13;;;20.09;58.97
46942;BME280;32676;52.630;4.896;2022-07-22T10:28:25;101182.03;;;20.14;59.48
46942;BME280;32676;52.630;4.896;2022-07-22T10:30:52;101209.78;;;20.24;57.98
46942;BME280;32676;52.630;4.896;2022-07-22T10:33:19;101210.19;;;20.18;57.75
46942;BME280;32676;52.630;4.896;2022-07-22T10:39:09;101278.56;;;20.33;57.52
46942;BME280;32676;52.630;4.896;2022-07-22T10:41:39;101325.81;;;20.46;57.14
46942;BME280;32676;52.630;4.896;2022-07-22T10:44:06;101334.38;;;20.51;56.24
46942;BME280;32676;52.630;4.896;2022-07-22T10:46:49;101329.88;;;20.51;55.98
46942;BME280;32676;52.630;4.896;2022-07-22T10:49:18;101339.72;;;20.51;55.77
46942;BME280;32676;52.630;4.896;2022-07-22T10:52:10;101327.31;;;20.50;56.47
46942;BME280;32676;52.630;4.896;2022-07-22T10:55:16;101323.88;;;20.48;56.48
46942;BME280;32676;52.630;4.896;2022-07-22T10:57:44;101297.59;;;20.42;55.99
46942;BME280;32676;52.630;4.896;2022-07-22T11:00:11;101276.13;;;20.30;55.49
46942;BME280;32676;52.630;4.896;2022-07-22T11:43:07;101415.88;;;20.71;56.19
46942;BME280;32676;52.630;4.896;2022-07-22T11:45:34;101444.72;;;20.79;55.65
46942;BME280;32676;52.630;4.896;2022-07-22T11:48:08;101481.53;;;20.88;54.98
46942;BME280;32676;52.630;4.896;2022-07-22T11:50:34;101529.44;;;20.91;54.26
46942;BME280;32676;52.630;4.896;2022-07-22T11:53:01;101566.06;;;21.03;53.80
46942;BME280;32676;52.630;4.896;2022-07-22T11:55:28;101616.81;;;21.18;54.56
46942;BME280;32676;52.630;4.896;2022-07-22T11:57:57;101626.34;;;21.07;54.61
46942;BME280;32676;52.630;4.896;2022-07-22T12:00:25;101682.81;;;21.30;54.02
46942;BME280;32676;52.630;4.896;2022-07-22T12:02:52;101732.69;;;21.45;54.41
46942;BME280;32676;52.630;4.896;2022-07-22T12:05:18;101732.69;;;21.45;52.85
46942;BME280;32676;52.630;4.896;2022-07-22T12:07:45;101763.53;;;21.51;53.19
46942;BME280;32676;52.630;4.896;2022-07-22T12:10:12;101708.41;;;21.34;52.86
46942;BME280;32676;52.630;4.896;2022-07-22T12:12:42;101675.00;;;21.27;52.79
46942;BME280;32676;52.630;4.896;2022-07-22T12:15:09;101660.88;;;21.25;52.67
46942;BME280;32676;52.630;4.896;2022-07-22T12:17:37;101656.31;;;21.27;53.37
46942;BME280;32676;52.630;4.896;2022-07-22T12:20:10;101708.03;;;21.40;53.60
46942;BME280;32676;52.630;4.896;2022-07-22T12:22:44;101702.84;;;21.37;52.58
46942;BME280;32676;52.630;4.896;2022-07-22T12:25:11;101708.03;;;21.40;52.49
46942;BME280;32676;52.630;4.896;2022-07-22T12:27:38;101700.00;;;21.40;52.88
46942;BME280;32676;52.630;4.896;2022-07-22T12:30:11;101671.00;;;21.34;53.82
46942;BME280;32676;52.630;4.896;2022-07-22T12:32:46;101658.00;;;21.28;53.44
46942;BME280;32676;52.630;4.896;2022-07-22T12:35:14;101643.88;;;21.26;53.67
46942;BME280;32676;52.630;4.896;2022-07-22T12:37:42;101609.72;;;21.17;53.54
46942;BME280;32676;52.630;4.896;2022-07-22T12:40:10;101592.00;;;21.16;53.77
46942;BME280;32676;52.630;4.896;2022-07-22T12:42:41;101581.00;;;21.06;54.19
46942;BME280;32676;52.630;4.896;2022-07-22T12:45:11;101614.69;;;21.23;54.24
46942;BME280;32676;52.630;4.896;2022-07-22T12:48:04;101635.84;;;21.26;54.73
46942;BME280;32676;52.630;4.896;2022-07-22T12:50:34;101608.03;;;21.16;54.46
46942;BME280;32676;52.630;4.896;2022-07-22T12:53:03;101622.81;;;21.21;54.57
46942;BME280;32676;52.630;4.896;2022-07-22T12:55:32;101625.16;;;21.26;54.96
46942;BME280;32676;52.630;4.896;2022-07-22T12:57:58;101574.41;;;21.12;54.06
46942;BME280;32676;52.630;4.896;2022-07-22T13:00:27;101580.41;;;21.15;54.43
46942;BME280;32676;52.630;4.896;2022-07-22T13:02:55;101560.28;;;21.09;54.31
46942;BME280;32676;52.630;4.896;2022-07-22T13:05:22;101526.91;;;21.02;54.75
46942;BME280;32676;52.630;4.896;2022-07-22T13:07:49;101501.44;;;20.97;54.23
46942;BME280;32676;52.630;4.896;2022-07-22T13:10:19;101482.19;;;20.92;54.55
46942;BME280;32676;52.630;4.896;2022-07-22T13:12:46;101465.50;;;20.88;54.92
46942;BME280;32676;52.630;4.896;2022-07-22T13:15:13;101422.81;;;20.74;56.17
46942;BME280;32676;52.630;4.896;2022-07-22T13:17:40;101409.25;;;20.77;56.45
46942;BME280;32676;52.630;4.896;2022-07-22T13:20:09;101399.00;;;20.70;56.75
46942;BME280;32676;52.630;4.896;2022-07-22T13:22:37;101395.94;;;20.62;56.27
46942;BME280;32676;52.630;4.896;2022-07-22T13:25:05;101428.94;;;20.76;56.23
46942;BME280;32676;52.630;4.896;2022-07-22T13:27:32;101415.44;;;20.77;57.28
46942;BME280;32676;52.630;4.896;2022-07-22T13:29:59;101398.75;;;20.74;57.22
46942;BME280;32676;52.630;4.896;2022-07-22T13:32:26;101390.00;;;20.71;57.15
46942;BME280;32676;52.630;4.896;2022-07-22T13:34:53;101330.75;;;20.52;56.61
46942;BME280;32676;52.630;4.896;2022-07-22T13:37:21;101346.19;;;20.61;57.02
46942;BME280;32676;52.630;4.896;2022-07-22T13:39:49;101344.53;;;20.59;56.50
46942;BME280;32676;52.630;4.896;2022-07-22T13:42:16;101349.03;;;20.58;56.75